createdAt,value
2019-03-05T00:00:16.671Z,1.70
2019-03-05T00:01:16.644Z,1.50
2019-03-05T00:02:16.622Z,1.60
2019-03-05T00:03:16.600Z,1.70
2019-03-05T00:04:16.576Z,1.90
2019-03-05T00:05:16.561Z,1.60
2019-03-05T00:06:16.529Z,1.60
2019-03-05T00:07:16.509Z,1.50
2019-03-05T00:08:16.491Z,1.80
2019-03-05T00:09:16.461Z,1.70
2019-03-05T00:10:16.442Z,1.40
2019-03-05T00:11:16.424Z,2.10
2019-03-05T00:12:16.398Z,1.90
2019-03-05T00:13:16.374Z,1.80
2019-03-05T00:14:18.754Z,1.70
2019-03-05T00:15:16.331Z,1.90
2019-03-05T00:16:16.308Z,1.60
2019-03-05T00:17:16.285Z,1.70
2019-03-05T00:18:16.265Z,1.70
2019-03-05T00:19:16.246Z,1.50
2019-03-05T00:20:16.218Z,1.80
2019-03-05T00:21:16.200Z,1.80
2019-03-05T00:22:16.176Z,1.70
2019-03-05T00:23:16.152Z,1.80
2019-03-05T00:24:16.141Z,1.90
2019-03-05T00:25:16.111Z,2.00
2019-03-05T00:26:16.086Z,2.00
2019-03-05T00:27:16.059Z,1.90
2019-03-05T00:28:16.041Z,2.00
2019-03-05T00:29:16.017Z,2.30
2019-03-05T00:30:15.996Z,2.10
2019-03-05T00:31:15.980Z,1.80
2019-03-05T00:32:15.955Z,1.90
2019-03-05T00:33:15.929Z,1.80
2019-03-05T00:34:15.907Z,2.10
2019-03-05T00:35:15.884Z,2.10
2019-03-05T00:36:15.864Z,2.20
2019-03-05T00:37:15.847Z,2.20
2019-03-05T00:38:15.821Z,2.00
2019-03-05T00:39:15.801Z,2.10
2019-03-05T00:40:15.775Z,2.40
2019-03-05T00:41:15.752Z,2.50
2019-03-05T00:42:15.727Z,2.20
2019-03-05T00:43:15.709Z,2.00
2019-03-05T00:44:15.687Z,2.00
2019-03-05T00:45:15.664Z,2.30
2019-03-05T00:46:15.643Z,1.90
2019-03-05T00:47:15.621Z,2.40
2019-03-05T00:48:15.598Z,2.30
2019-03-05T00:49:15.575Z,1.90
2019-03-05T00:50:15.559Z,2.50
2019-03-05T00:51:24.604Z,2.40
2019-03-05T00:52:15.509Z,2.40
2019-03-05T00:53:15.488Z,2.20
2019-03-05T00:54:15.463Z,2.60
2019-03-05T00:55:15.441Z,2.40
2019-03-05T00:56:15.419Z,2.40
2019-03-05T00:57:15.395Z,2.50
2019-03-05T00:58:15.375Z,2.60
2019-03-05T00:59:15.351Z,2.70
2019-03-05T01:00:15.332Z,2.50
2019-03-05T01:01:15.308Z,2.40
2019-03-05T01:02:15.287Z,2.70
2019-03-05T01:03:15.265Z,2.30
2019-03-05T01:04:15.243Z,2.70
2019-03-05T01:05:15.218Z,2.90
2019-03-05T01:06:15.197Z,2.90
2019-03-05T01:07:15.177Z,2.60
2019-03-05T01:08:15.154Z,2.80
2019-03-05T01:09:15.137Z,2.90
2019-03-05T01:10:15.109Z,3.00
2019-03-05T01:11:15.084Z,2.60
2019-03-05T01:12:15.063Z,2.70
2019-03-05T01:13:15.043Z,1.90
2019-03-05T01:14:15.022Z,3.00
2019-03-05T01:15:14.998Z,2.60
2019-03-05T01:16:14.974Z,2.60
2019-03-05T01:17:14.954Z,3.00
2019-03-05T01:18:14.939Z,2.70
2019-03-05T01:19:14.914Z,2.80
2019-03-05T01:20:14.887Z,2.60
2019-03-05T01:21:14.865Z,2.70
2019-03-05T01:22:14.849Z,2.30
2019-03-05T01:23:14.824Z,2.40
2019-03-05T01:24:14.802Z,2.50
2019-03-05T01:25:14.780Z,2.10
2019-03-05T01:26:14.758Z,2.60
2019-03-05T01:27:14.724Z,2.50
2019-03-05T01:28:14.710Z,2.20
2019-03-05T01:29:14.695Z,2.20
2019-03-05T01:30:14.671Z,2.70
2019-03-05T01:31:14.650Z,2.20
2019-03-05T01:32:14.631Z,2.30
2019-03-05T01:33:14.600Z,2.40
2019-03-05T01:34:14.580Z,2.10
2019-03-05T01:35:14.561Z,2.40
2019-03-05T01:36:14.536Z,2.40
2019-03-05T01:37:14.515Z,2.20
2019-03-05T01:38:14.491Z,2.00
2019-03-05T01:39:14.466Z,2.10
2019-03-05T01:40:14.448Z,2.30
2019-03-05T01:41:14.423Z,2.30
2019-03-05T01:42:14.408Z,2.10
2019-03-05T01:43:14.378Z,2.20
2019-03-05T01:44:14.360Z,2.20
2019-03-05T01:45:14.342Z,2.20
2019-03-05T01:46:14.316Z,2.10
2019-03-05T01:47:14.293Z,2.20
2019-03-05T01:48:14.270Z,2.00
2019-03-05T01:49:14.246Z,2.40
2019-03-05T01:50:14.229Z,2.60
2019-03-05T01:51:14.203Z,1.90
2019-03-05T01:52:14.184Z,2.20
2019-03-05T01:53:14.158Z,2.30
2019-03-05T01:54:14.138Z,1.90
2019-03-05T01:55:14.119Z,2.10
2019-03-05T01:56:14.096Z,2.20
2019-03-05T01:57:14.073Z,2.50
2019-03-05T01:58:14.053Z,2.30
2019-03-05T01:59:14.028Z,2.10
2019-03-05T02:00:14.006Z,2.30
2019-03-05T02:01:13.988Z,2.00
2019-03-05T02:02:13.966Z,2.10
2019-03-05T02:03:13.940Z,2.10
2019-03-05T02:04:13.921Z,2.20
2019-03-05T02:05:13.894Z,2.20
2019-03-05T02:06:13.880Z,1.90
2019-03-05T02:07:13.855Z,2.00
2019-03-05T02:08:13.830Z,2.00
2019-03-05T02:09:13.806Z,2.40
2019-03-05T02:10:13.790Z,2.10
2019-03-05T02:11:13.764Z,2.10
2019-03-05T02:12:13.740Z,2.10
2019-03-05T02:13:13.718Z,2.00
2019-03-05T02:14:13.704Z,2.30
2019-03-05T02:15:13.683Z,2.30
2019-03-05T02:16:13.656Z,2.30
2019-03-05T02:17:13.630Z,2.40
2019-03-05T02:18:13.618Z,2.40
2019-03-05T02:19:13.588Z,2.20
2019-03-05T02:20:13.562Z,2.10
2019-03-05T02:21:13.538Z,2.50
2019-03-05T02:22:13.514Z,2.30
2019-03-05T02:23:13.503Z,2.10
2019-03-05T02:24:13.480Z,2.20
2019-03-05T02:25:13.457Z,2.50
2019-03-05T02:26:13.429Z,2.00
2019-03-05T02:27:13.420Z,2.40
2019-03-05T02:28:13.390Z,2.20
2019-03-05T02:29:13.359Z,2.00
2019-03-05T02:30:13.340Z,2.00
2019-03-05T02:31:13.322Z,1.80
2019-03-05T02:32:13.297Z,2.50
2019-03-05T02:33:13.282Z,2.00
2019-03-05T02:34:13.262Z,2.10
2019-03-05T02:35:13.228Z,2.20
2019-03-05T02:36:13.205Z,2.00
2019-03-05T02:37:13.196Z,2.00
2019-03-05T02:38:13.165Z,2.00
2019-03-05T02:39:13.147Z,2.40
2019-03-05T02:40:13.125Z,2.00
2019-03-05T02:41:13.101Z,2.00
2019-03-05T02:42:13.100Z,2.30
2019-03-05T02:43:13.053Z,1.80
2019-03-05T02:44:13.026Z,2.30
2019-03-05T02:45:13.012Z,2.30
2019-03-05T02:46:12.986Z,2.00
2019-03-05T02:47:12.968Z,1.90
2019-03-05T02:48:12.941Z,2.40
2019-03-05T02:49:12.920Z,2.20
2019-03-05T02:50:12.900Z,2.70
2019-03-05T02:51:12.874Z,2.10
2019-03-05T02:52:12.851Z,2.30
2019-03-05T02:53:12.832Z,2.30
2019-03-05T02:54:12.828Z,2.50
2019-03-05T02:55:12.788Z,2.20
2019-03-05T02:56:12.765Z,2.00
2019-03-05T02:57:12.741Z,2.20
2019-03-05T02:58:12.718Z,2.10
2019-03-05T02:59:12.698Z,2.40
2019-03-05T03:00:12.692Z,2.10
2019-03-05T03:01:12.651Z,2.00
2019-03-05T03:02:12.630Z,2.20
2019-03-05T03:03:12.625Z,2.40
2019-03-05T03:04:12.586Z,2.10
2019-03-05T03:05:12.561Z,2.40
2019-03-05T03:06:12.553Z,2.10
2019-03-05T03:07:12.516Z,2.20
2019-03-05T03:08:12.499Z,2.10
2019-03-05T03:09:12.476Z,2.20
2019-03-05T03:10:12.458Z,1.90
2019-03-05T03:11:12.437Z,2.10
2019-03-05T03:12:12.411Z,1.90
2019-03-05T03:13:12.379Z,2.00
2019-03-05T03:14:12.360Z,2.00
2019-03-05T03:15:12.340Z,2.00
2019-03-05T03:16:12.317Z,1.90
2019-03-05T03:17:12.298Z,2.30
2019-03-05T03:18:12.274Z,2.10
2019-03-05T03:19:12.254Z,2.10
2019-03-05T03:20:12.226Z,1.90
2019-03-05T03:21:12.200Z,2.10
2019-03-05T03:22:12.192Z,2.00
2019-03-05T03:23:12.164Z,1.90
2019-03-05T03:24:12.219Z,1.70
2019-03-05T03:25:12.124Z,2.00
2019-03-05T03:26:12.095Z,1.90
2019-03-05T03:27:12.072Z,1.70
2019-03-05T03:28:12.051Z,1.40
2019-03-05T03:29:12.026Z,1.60
2019-03-05T03:30:12.008Z,1.80
2019-03-05T03:31:11.987Z,1.70
2019-03-05T03:32:11.962Z,1.70
2019-03-05T03:33:11.938Z,1.40
2019-03-05T03:34:11.931Z,1.70
2019-03-05T03:35:11.892Z,1.90
2019-03-05T03:36:11.867Z,1.80
2019-03-05T03:37:11.847Z,1.60
2019-03-05T03:38:11.825Z,1.80
2019-03-05T03:39:11.808Z,1.30
2019-03-05T03:40:11.780Z,1.50
2019-03-05T03:41:11.765Z,1.40
2019-03-05T03:42:11.733Z,1.40
2019-03-05T03:43:11.719Z,1.50
2019-03-05T03:44:11.691Z,1.50
2019-03-05T03:45:11.671Z,1.30
2019-03-05T03:46:11.645Z,1.30
2019-03-05T03:47:11.632Z,1.20
2019-03-05T03:48:11.603Z,1.40
2019-03-05T03:49:11.580Z,1.80
2019-03-05T03:50:11.557Z,1.30
2019-03-05T03:51:11.535Z,1.30
2019-03-05T03:52:11.516Z,1.50
2019-03-05T03:53:11.491Z,1.20
2019-03-05T03:54:11.470Z,1.30
2019-03-05T03:55:11.446Z,1.40
2019-03-05T03:56:11.422Z,1.60
2019-03-05T03:57:11.400Z,1.30
2019-03-05T03:58:11.383Z,1.30
2019-03-05T03:59:11.361Z,1.50
2019-03-05T04:00:11.337Z,1.20
2019-03-05T04:01:11.312Z,1.30
2019-03-05T04:02:11.293Z,1.40
2019-03-05T04:03:11.272Z,1.50
2019-03-05T04:04:11.255Z,1.40
2019-03-05T04:05:11.226Z,1.50
2019-03-05T04:06:11.202Z,1.00
2019-03-05T04:07:11.180Z,1.30
2019-03-05T04:08:11.156Z,1.50
2019-03-05T04:09:11.135Z,1.20
2019-03-05T04:10:11.108Z,1.30
2019-03-05T04:11:11.093Z,1.40
2019-03-05T04:12:11.070Z,1.30
2019-03-05T04:13:11.045Z,1.30
2019-03-05T04:14:11.029Z,1.40
2019-03-05T04:15:11.000Z,1.30
2019-03-05T04:16:10.978Z,1.50
2019-03-05T04:17:10.954Z,1.20
2019-03-05T04:18:10.932Z,1.30
2019-03-05T04:19:10.912Z,1.30
2019-03-05T04:20:10.889Z,1.10
2019-03-05T04:21:10.868Z,1.50
2019-03-05T04:22:10.843Z,1.60
2019-03-05T04:23:10.824Z,1.30
2019-03-05T04:24:10.815Z,1.30
2019-03-05T04:25:10.778Z,1.30
2019-03-05T04:26:10.759Z,1.40
2019-03-05T04:27:10.737Z,1.60
2019-03-05T04:28:10.712Z,1.20
2019-03-05T04:29:10.692Z,1.30
2019-03-05T04:30:10.678Z,1.10
2019-03-05T04:31:10.656Z,1.20
2019-03-05T04:32:10.625Z,1.20
2019-03-05T04:33:10.603Z,1.20
2019-03-05T04:34:10.583Z,1.60
2019-03-05T04:35:10.557Z,1.30
2019-03-05T04:36:10.534Z,1.20
2019-03-05T04:37:10.513Z,1.40
2019-03-05T04:38:10.494Z,1.20
2019-03-05T04:39:10.478Z,1.70
2019-03-05T04:40:10.450Z,1.20
2019-03-05T04:41:10.429Z,1.40
2019-03-05T04:42:10.400Z,1.30
2019-03-05T04:43:10.380Z,1.20
2019-03-05T04:44:10.356Z,1.70
2019-03-05T04:45:10.338Z,1.20
2019-03-05T04:46:10.318Z,1.10
2019-03-05T04:47:10.301Z,1.20
2019-03-05T04:48:10.274Z,1.30
2019-03-05T04:49:10.249Z,1.50
2019-03-05T04:50:10.224Z,1.50
2019-03-05T04:51:10.205Z,1.20
2019-03-05T04:52:10.182Z,1.40
2019-03-05T04:53:10.160Z,1.60
2019-03-05T04:54:10.137Z,1.30
2019-03-05T04:55:10.114Z,1.20
2019-03-05T04:56:21.140Z,1.50
2019-03-05T04:57:21.100Z,1.70
2019-03-05T04:58:21.135Z,1.60
2019-03-05T04:59:21.058Z,1.60
2019-03-05T05:00:21.038Z,1.80
2019-03-05T05:01:21.012Z,1.80
2019-03-05T05:02:20.992Z,1.70
2019-03-05T05:03:20.969Z,1.70
2019-03-05T05:04:20.947Z,1.60
2019-03-05T05:05:20.924Z,1.80
2019-03-05T05:06:20.903Z,1.80
2019-03-05T05:07:20.882Z,1.70
2019-03-05T05:08:20.862Z,2.00
2019-03-05T05:09:20.842Z,1.90
2019-03-05T05:10:20.817Z,1.90
2019-03-05T05:11:20.794Z,1.80
2019-03-05T05:12:20.770Z,2.40
2019-03-05T05:13:20.756Z,2.20
2019-03-05T05:14:20.725Z,2.60
2019-03-05T05:15:20.705Z,2.50
2019-03-05T05:16:20.684Z,2.20
2019-03-05T05:17:20.662Z,2.10
2019-03-05T05:18:20.643Z,2.20
2019-03-05T05:19:20.626Z,2.30
2019-03-05T05:20:20.599Z,2.20
2019-03-05T05:21:20.575Z,2.40
2019-03-05T05:22:20.553Z,2.30
2019-03-05T05:23:20.538Z,2.70
2019-03-05T05:24:20.509Z,2.40
2019-03-05T05:25:20.495Z,2.50
2019-03-05T05:26:20.461Z,2.40
2019-03-05T05:27:20.443Z,2.60
2019-03-05T05:28:20.420Z,2.70
2019-03-05T05:29:20.401Z,2.40
2019-03-05T05:30:20.373Z,2.40
2019-03-05T05:31:20.359Z,2.30
2019-03-05T05:32:20.329Z,2.90
2019-03-05T05:33:20.321Z,2.50
2019-03-05T05:34:20.295Z,2.60
2019-03-05T05:35:20.270Z,2.70
2019-03-05T05:36:20.313Z,2.40
2019-03-05T05:37:20.223Z,3.00
2019-03-05T05:38:20.206Z,3.20
2019-03-05T05:39:20.183Z,2.60
2019-03-05T05:40:20.161Z,2.60
2019-03-05T05:41:20.135Z,3.00
2019-03-05T05:42:20.121Z,3.10
2019-03-05T05:43:20.121Z,2.70
2019-03-05T05:44:20.069Z,3.00
2019-03-05T05:45:20.051Z,2.60
2019-03-05T05:46:20.023Z,3.00
2019-03-05T05:47:20.009Z,2.70
2019-03-05T05:48:19.983Z,2.90
2019-03-05T05:49:19.959Z,3.00
2019-03-05T05:50:19.938Z,3.10
2019-03-05T05:51:19.913Z,2.90
2019-03-05T05:52:19.895Z,2.70
2019-03-05T05:53:19.875Z,3.30
2019-03-05T05:54:19.853Z,3.30
2019-03-05T05:55:19.829Z,2.60
2019-03-05T05:56:19.808Z,3.00
2019-03-05T05:57:19.797Z,3.30
2019-03-05T05:58:19.769Z,3.60
2019-03-05T05:59:19.739Z,3.80
2019-03-05T06:00:19.723Z,3.40
2019-03-05T06:01:19.732Z,3.30
2019-03-05T06:02:19.673Z,3.80
2019-03-05T06:03:19.656Z,3.90
2019-03-05T06:04:19.632Z,3.90
2019-03-05T06:05:19.664Z,3.40
2019-03-05T06:06:19.639Z,4.10
2019-03-05T06:07:19.568Z,3.40
2019-03-05T06:08:19.560Z,3.50
2019-03-05T06:09:19.519Z,3.00
2019-03-05T06:10:19.535Z,2.90
2019-03-05T06:11:19.481Z,3.00
2019-03-05T06:12:19.458Z,3.10
2019-03-05T06:13:19.458Z,3.10
2019-03-05T06:14:19.407Z,3.10
2019-03-05T06:15:19.396Z,3.60
2019-03-05T06:16:19.365Z,5.20
2019-03-05T06:17:19.355Z,3.60
2019-03-05T06:18:19.324Z,3.30
2019-03-05T06:19:19.309Z,3.30
2019-03-05T06:20:19.285Z,3.20
2019-03-05T06:21:19.257Z,3.20
2019-03-05T06:22:19.243Z,3.40
2019-03-05T06:23:19.214Z,3.50
2019-03-05T06:24:19.196Z,3.60
2019-03-05T06:25:19.172Z,3.50
2019-03-05T06:26:19.155Z,3.20
2019-03-05T06:27:19.127Z,3.50
2019-03-05T06:28:19.104Z,3.50
2019-03-05T06:29:19.082Z,3.50
2019-03-05T06:30:19.065Z,3.40
2019-03-05T06:31:19.044Z,3.40
2019-03-05T06:32:19.014Z,3.50
2019-03-05T06:33:18.992Z,3.30
2019-03-05T06:34:18.969Z,3.80
2019-03-05T06:35:18.952Z,3.50
2019-03-05T06:36:18.931Z,3.40
2019-03-05T06:37:18.904Z,3.70
2019-03-05T06:38:18.882Z,3.30
2019-03-05T06:39:18.860Z,3.10
2019-03-05T06:40:18.843Z,3.40
2019-03-05T06:41:18.818Z,3.50
2019-03-05T06:42:18.799Z,3.10
2019-03-05T06:43:18.776Z,3.10
2019-03-05T06:44:18.755Z,3.40
2019-03-05T06:45:18.733Z,3.50
2019-03-05T06:46:18.710Z,3.20
2019-03-05T06:47:18.686Z,3.40
2019-03-05T06:48:18.670Z,3.70
2019-03-05T06:49:18.646Z,3.40
2019-03-05T06:50:18.622Z,3.70
2019-03-05T06:51:18.601Z,3.40
2019-03-05T06:52:18.580Z,3.40
2019-03-05T06:53:18.559Z,3.30
2019-03-05T06:54:18.538Z,3.40
2019-03-05T06:55:18.518Z,3.50
2019-03-05T06:56:18.493Z,3.40
2019-03-05T06:57:18.468Z,3.40
2019-03-05T06:58:18.454Z,3.40
2019-03-05T06:59:18.427Z,3.50
2019-03-05T07:00:18.407Z,3.50
2019-03-05T07:01:18.383Z,3.30
2019-03-05T07:02:18.362Z,3.20
2019-03-05T07:03:18.342Z,3.10
2019-03-05T07:04:18.316Z,3.10
2019-03-05T07:05:18.304Z,3.00
2019-03-05T07:06:18.278Z,3.10
2019-03-05T07:07:18.253Z,3.10
2019-03-05T07:08:18.232Z,3.00
2019-03-05T07:09:18.210Z,3.00
2019-03-05T07:10:18.185Z,3.10
2019-03-05T07:11:18.167Z,3.40
2019-03-05T07:12:18.144Z,3.50
2019-03-05T07:13:18.123Z,3.30
2019-03-05T07:14:18.099Z,3.10
2019-03-05T07:15:18.079Z,3.00
2019-03-05T07:16:18.062Z,3.10
2019-03-05T07:17:18.037Z,3.10
2019-03-05T07:18:18.013Z,3.10
2019-03-05T07:19:17.990Z,3.00
2019-03-05T07:20:17.973Z,2.90
2019-03-05T07:21:17.951Z,2.90
2019-03-05T07:22:17.934Z,3.00
2019-03-05T07:23:17.906Z,2.90
2019-03-05T07:24:17.886Z,3.10
2019-03-05T07:25:17.867Z,2.70
2019-03-05T07:26:17.860Z,3.00
2019-03-05T07:27:17.822Z,3.10
2019-03-05T07:28:17.797Z,2.80
2019-03-05T07:29:18.152Z,2.70
2019-03-05T07:30:17.754Z,2.80
2019-03-05T07:31:17.737Z,2.70
2019-03-05T07:32:17.723Z,2.80
2019-03-05T07:33:17.689Z,2.90
2019-03-05T07:34:17.671Z,2.90
2019-03-05T07:35:17.651Z,3.10
2019-03-05T07:36:17.629Z,2.70
2019-03-05T07:37:17.607Z,2.80
2019-03-05T07:38:17.586Z,2.70
2019-03-05T07:39:17.564Z,3.20
2019-03-05T07:40:17.544Z,2.70
2019-03-05T07:41:17.517Z,2.60
2019-03-05T07:42:17.499Z,2.30
2019-03-05T07:43:17.482Z,2.90
2019-03-05T07:44:17.459Z,2.40
2019-03-05T07:45:17.461Z,2.50
2019-03-05T07:46:17.415Z,2.10
2019-03-05T07:47:17.395Z,2.60
2019-03-05T07:48:17.371Z,2.50
2019-03-05T07:49:17.351Z,2.40
2019-03-05T07:50:17.333Z,2.20
2019-03-05T07:51:17.310Z,2.60
2019-03-05T07:52:17.298Z,2.40
2019-03-05T07:53:17.300Z,3.00
2019-03-05T07:54:17.245Z,2.70
2019-03-05T07:55:17.223Z,2.50
2019-03-05T07:56:17.203Z,2.40
2019-03-05T07:57:17.185Z,2.50
2019-03-05T07:58:17.162Z,2.60
2019-03-05T07:59:17.141Z,2.40
2019-03-05T08:00:17.123Z,2.80
2019-03-05T08:01:22.192Z,2.50
2019-03-05T08:02:17.079Z,2.70
2019-03-05T08:03:17.059Z,2.80
2019-03-05T08:04:17.039Z,2.60
2019-03-05T08:05:17.015Z,2.60
2019-03-05T08:06:16.996Z,3.00
2019-03-05T08:07:16.971Z,2.40
2019-03-05T08:08:26.442Z,2.70
2019-03-05T08:09:16.940Z,3.00
2019-03-05T08:10:16.911Z,2.50
2019-03-05T08:11:16.899Z,2.60
2019-03-05T08:12:16.872Z,2.50
2019-03-05T08:13:16.850Z,2.70
2019-03-05T08:14:16.831Z,2.90
2019-03-05T08:15:16.815Z,2.80
2019-03-05T08:16:16.789Z,2.60
2019-03-05T08:17:16.771Z,2.60
2019-03-05T08:18:16.750Z,2.40
2019-03-05T08:19:16.732Z,2.80
2019-03-05T08:20:16.714Z,3.10
2019-03-05T08:21:16.687Z,3.10
2019-03-05T08:22:16.668Z,2.70
2019-03-05T08:23:16.652Z,2.70
2019-03-05T08:24:16.625Z,2.90
2019-03-05T08:25:16.611Z,2.80
2019-03-05T08:26:16.583Z,3.00
2019-03-05T08:27:16.565Z,3.30
2019-03-05T08:28:16.542Z,2.90
2019-03-05T08:29:16.528Z,2.90
2019-03-05T08:30:16.509Z,2.80
2019-03-05T08:31:16.485Z,2.80
2019-03-05T08:32:16.462Z,2.90
2019-03-05T08:33:16.442Z,2.60
2019-03-05T08:34:16.425Z,2.60
2019-03-05T08:35:16.396Z,2.40
2019-03-05T08:36:16.382Z,2.50
2019-03-05T08:37:16.357Z,2.30
2019-03-05T08:38:16.339Z,2.50
2019-03-05T08:39:16.318Z,1.90
2019-03-05T08:40:16.295Z,2.10
2019-03-05T08:41:16.275Z,1.90
2019-03-05T08:42:16.258Z,1.80
2019-03-05T08:43:16.243Z,1.70
2019-03-05T08:44:16.216Z,1.70
2019-03-05T08:45:16.194Z,1.80
2019-03-05T08:46:16.174Z,2.20
2019-03-05T08:47:16.150Z,2.00
2019-03-05T08:48:16.132Z,2.00
2019-03-05T08:49:17.940Z,2.00
2019-03-05T08:50:16.094Z,1.90
2019-03-05T08:51:16.077Z,1.50
2019-03-05T08:52:16.051Z,1.90
2019-03-05T08:53:16.030Z,1.80
2019-03-05T08:54:16.009Z,1.70
2019-03-05T08:55:15.994Z,2.40
2019-03-05T08:56:15.977Z,1.80
2019-03-05T08:57:15.946Z,2.20
2019-03-05T08:58:15.930Z,1.80
2019-03-05T08:59:15.910Z,2.00
2019-03-05T09:00:15.890Z,1.50
2019-03-05T09:01:15.878Z,1.90
2019-03-05T09:02:15.852Z,2.00
2019-03-05T09:03:15.827Z,1.90
2019-03-05T09:04:15.812Z,1.50
2019-03-05T09:05:15.792Z,2.00
2019-03-05T09:06:15.771Z,1.60
2019-03-05T09:07:15.756Z,3.20
2019-03-05T09:08:15.734Z,2.30
2019-03-05T09:09:15.718Z,2.30
2019-03-05T09:10:15.698Z,2.30
2019-03-05T09:11:15.742Z,2.10
2019-03-05T09:12:15.656Z,2.50
2019-03-05T09:13:15.640Z,1.90
2019-03-05T09:14:15.614Z,1.40
2019-03-05T09:15:15.602Z,1.60
2019-03-05T09:16:15.578Z,1.40
2019-03-05T09:17:15.556Z,1.50
2019-03-05T09:18:15.538Z,1.80
2019-03-05T09:19:15.519Z,1.70
2019-03-05T09:20:15.500Z,1.20
2019-03-05T09:21:15.481Z,1.30
2019-03-05T09:22:15.466Z,1.40
2019-03-05T09:23:15.446Z,1.40
2019-03-05T09:24:15.423Z,1.50
2019-03-05T09:25:15.404Z,1.50
2019-03-05T09:26:15.386Z,1.50
2019-03-05T09:27:15.368Z,1.40
2019-03-05T09:28:15.353Z,1.40
2019-03-05T09:29:15.329Z,1.20
2019-03-05T09:30:15.309Z,1.50
2019-03-05T09:31:15.290Z,1.50
2019-03-05T09:32:15.278Z,1.60
2019-03-05T09:33:15.254Z,1.10
2019-03-05T09:34:15.234Z,1.60
2019-03-05T09:35:15.221Z,1.50
2019-03-05T09:36:15.205Z,1.80
2019-03-05T09:37:15.172Z,1.40
2019-03-05T09:38:15.159Z,1.30
2019-03-05T09:39:15.138Z,1.40
2019-03-05T09:40:15.118Z,1.40
2019-03-05T09:41:15.098Z,1.20
2019-03-05T09:42:15.077Z,1.40
2019-03-05T09:43:15.056Z,1.20
2019-03-05T09:44:15.043Z,1.50
2019-03-05T09:45:15.030Z,1.40
2019-03-05T09:46:15.010Z,1.50
2019-03-05T09:47:14.983Z,1.60
2019-03-05T09:48:14.961Z,1.40
2019-03-05T09:49:14.941Z,1.40
2019-03-05T09:50:14.922Z,1.30
2019-03-05T09:51:14.911Z,1.30
2019-03-05T09:52:14.882Z,1.60
2019-03-05T09:53:14.860Z,1.30
2019-03-05T09:54:14.842Z,1.60
2019-03-05T09:55:14.821Z,1.70
2019-03-05T09:56:14.806Z,1.50
2019-03-05T09:57:14.783Z,1.30
2019-03-05T09:58:14.765Z,2.00
2019-03-05T09:59:14.743Z,1.30
2019-03-05T10:00:14.726Z,1.50
2019-03-05T10:01:14.703Z,1.40
2019-03-05T10:02:14.683Z,1.30
2019-03-05T10:03:14.661Z,1.30
2019-03-05T10:04:14.641Z,1.40
2019-03-05T10:05:14.623Z,1.60
2019-03-05T10:06:14.608Z,1.40
2019-03-05T10:07:18.996Z,1.50
2019-03-05T10:08:14.565Z,1.80
2019-03-05T10:09:14.544Z,1.20
2019-03-05T10:10:14.519Z,1.30
2019-03-05T10:11:14.507Z,1.60
2019-03-05T10:12:14.481Z,1.80
2019-03-05T10:13:14.469Z,2.00
2019-03-05T10:14:14.447Z,1.70
2019-03-05T10:15:14.421Z,1.90
2019-03-05T10:16:14.410Z,1.70
2019-03-05T10:17:14.390Z,1.60
2019-03-05T10:18:14.359Z,1.20
2019-03-05T10:19:14.353Z,1.50
2019-03-05T10:20:14.329Z,1.50
2019-03-05T10:21:14.297Z,1.60
2019-03-05T10:22:14.282Z,2.00
2019-03-05T10:23:14.262Z,1.60
2019-03-05T10:24:14.250Z,1.60
2019-03-05T10:25:14.222Z,1.60
2019-03-05T10:26:14.201Z,1.80
2019-03-05T10:27:14.183Z,1.60
2019-03-05T10:28:14.164Z,1.50
2019-03-05T10:29:14.145Z,1.70
2019-03-05T10:30:24.071Z,1.50
2019-03-05T10:31:14.103Z,1.40
2019-03-05T10:32:14.085Z,1.50
2019-03-05T10:33:14.075Z,1.60
2019-03-05T10:34:14.049Z,1.30
2019-03-05T10:35:14.026Z,1.20
2019-03-05T10:36:14.010Z,1.40
2019-03-05T10:37:18.802Z,1.20
2019-03-05T10:38:13.971Z,1.30
2019-03-05T10:39:13.974Z,1.20
2019-03-05T10:40:13.935Z,1.10
2019-03-05T10:41:13.922Z,1.30
2019-03-05T10:42:13.893Z,1.20
2019-03-05T10:43:13.879Z,1.10
2019-03-05T10:44:13.859Z,1.00
2019-03-05T10:45:13.840Z,1.00
2019-03-05T10:46:13.823Z,1.20
2019-03-05T10:47:13.801Z,1.20
2019-03-05T10:48:13.785Z,1.30
2019-03-05T10:49:13.766Z,1.20
2019-03-05T10:50:15.535Z,1.10
2019-03-05T10:51:13.738Z,1.20
2019-03-05T10:52:13.711Z,1.00
2019-03-05T10:53:13.693Z,1.10
2019-03-05T10:54:13.675Z,1.00
2019-03-05T10:55:13.675Z,0.90
2019-03-05T10:56:13.648Z,1.00
2019-03-05T10:57:13.626Z,0.80
2019-03-05T10:58:13.606Z,1.00
2019-03-05T10:59:13.588Z,1.00
2019-03-05T11:00:13.574Z,1.00
2019-03-05T11:01:13.555Z,0.90
2019-03-05T11:02:13.536Z,0.90
2019-03-05T11:03:13.523Z,1.70
2019-03-05T11:04:13.502Z,1.20
2019-03-05T11:05:13.486Z,1.10
2019-03-05T11:06:13.472Z,1.00
2019-03-05T11:07:13.453Z,1.10
2019-03-05T11:08:13.436Z,1.10
2019-03-05T11:09:13.418Z,1.20
2019-03-05T11:10:13.401Z,1.20
2019-03-05T11:11:14.165Z,1.00
2019-03-05T11:12:13.368Z,1.20
2019-03-05T11:13:13.353Z,1.30
2019-03-05T11:14:13.330Z,1.10
2019-03-05T11:15:13.314Z,1.00
2019-03-05T11:16:13.298Z,1.30
2019-03-05T11:17:13.280Z,1.10
2019-03-05T11:18:13.265Z,1.00
2019-03-05T11:19:13.251Z,1.00
2019-03-05T11:20:13.227Z,1.20
2019-03-05T11:21:13.210Z,1.10
2019-03-05T11:22:13.193Z,1.10
2019-03-05T11:23:13.176Z,1.20
2019-03-05T11:24:13.165Z,1.10
2019-03-05T11:25:13.140Z,1.00
2019-03-05T11:26:13.122Z,0.80
2019-03-05T11:27:13.104Z,0.90
2019-03-05T11:28:13.089Z,1.10
2019-03-05T11:29:13.072Z,1.10
2019-03-05T11:30:13.050Z,1.20
2019-03-05T11:31:13.032Z,1.00
2019-03-05T11:32:13.014Z,1.00
2019-03-05T11:33:13.004Z,1.10
2019-03-05T11:34:13.277Z,0.90
2019-03-05T11:35:12.964Z,1.10
2019-03-05T11:36:12.942Z,1.00
2019-03-05T11:37:12.923Z,1.00
2019-03-05T11:38:12.907Z,1.00
2019-03-05T11:39:13.160Z,1.10
2019-03-05T11:40:20.688Z,1.10
2019-03-05T11:41:12.850Z,1.20
2019-03-05T11:42:12.836Z,1.10
2019-03-05T11:43:12.916Z,1.50
2019-03-05T11:44:12.797Z,1.40
2019-03-05T11:45:12.778Z,1.20
2019-03-05T11:46:12.774Z,1.30
2019-03-05T11:47:12.743Z,1.10
2019-03-05T11:48:12.733Z,1.10
2019-03-05T11:49:12.705Z,1.10
2019-03-05T11:50:12.689Z,1.10
2019-03-05T11:51:12.670Z,1.00
2019-03-05T11:52:12.657Z,1.20
2019-03-05T11:53:12.631Z,1.20
2019-03-05T11:54:12.614Z,1.20
2019-03-05T11:55:12.597Z,1.10
2019-03-05T11:56:12.577Z,1.10
2019-03-05T11:57:12.602Z,1.30
2019-03-05T11:58:12.544Z,1.10
2019-03-05T11:59:12.521Z,0.90
2019-03-05T12:00:12.505Z,1.00
2019-03-05T12:01:12.568Z,1.00
2019-03-05T12:02:21.487Z,1.00
2019-03-05T12:03:12.446Z,1.20
2019-03-05T12:04:12.428Z,1.30
2019-03-05T12:05:12.406Z,1.10
2019-03-05T12:06:12.394Z,1.00
2019-03-05T12:07:12.380Z,1.00
2019-03-05T12:08:12.355Z,1.80
2019-03-05T12:09:12.341Z,1.70
2019-03-05T12:10:12.319Z,1.60
2019-03-05T12:11:12.295Z,1.40
2019-03-05T12:12:12.281Z,1.60
2019-03-05T12:13:14.336Z,1.60
2019-03-05T12:14:12.241Z,1.40
2019-03-05T12:15:12.233Z,1.50
2019-03-05T12:16:12.202Z,1.20
2019-03-05T12:17:12.182Z,1.50
2019-03-05T12:18:12.162Z,1.20
2019-03-05T12:19:12.144Z,1.60
2019-03-05T12:20:12.126Z,1.40
2019-03-05T12:21:12.109Z,1.90
2019-03-05T12:22:12.088Z,2.20
2019-03-05T12:23:12.128Z,2.70
2019-03-05T12:24:12.053Z,2.70
2019-03-05T12:25:12.031Z,2.40
2019-03-05T12:26:12.015Z,2.00
2019-03-05T12:27:12.004Z,2.20
2019-03-05T12:28:11.974Z,1.60
2019-03-05T12:29:11.955Z,1.50
2019-03-05T12:30:11.934Z,1.60
2019-03-05T12:31:11.915Z,1.60
2019-03-05T12:32:11.897Z,1.50
2019-03-05T12:33:11.872Z,1.50
2019-03-05T12:34:11.854Z,1.50
2019-03-05T12:35:11.836Z,1.30
2019-03-05T12:36:11.815Z,1.30
2019-03-05T12:37:11.795Z,1.20
2019-03-05T12:38:11.777Z,1.40
2019-03-05T12:39:11.763Z,1.70
2019-03-05T12:40:11.737Z,1.20
2019-03-05T12:41:11.717Z,1.60
2019-03-05T12:42:11.699Z,1.40
2019-03-05T12:43:11.685Z,1.30
2019-03-05T12:44:11.661Z,1.40
2019-03-05T12:45:11.638Z,1.30
2019-03-05T12:46:11.617Z,1.20
2019-03-05T12:47:11.599Z,1.30
2019-03-05T12:48:11.585Z,1.30
2019-03-05T12:49:11.559Z,1.20
2019-03-05T12:50:11.542Z,1.30
2019-03-05T12:51:11.521Z,1.30
2019-03-05T12:52:11.515Z,1.50
2019-03-05T12:53:11.485Z,1.10
2019-03-05T12:54:11.470Z,1.10
2019-03-05T12:55:11.445Z,1.20
2019-03-05T12:56:11.423Z,1.10
2019-03-05T12:57:11.403Z,1.40
2019-03-05T12:58:11.385Z,1.30
2019-03-05T12:59:11.366Z,1.20
2019-03-05T13:00:11.347Z,1.20
2019-03-05T13:01:11.328Z,1.50
2019-03-05T13:02:11.311Z,1.40
2019-03-05T13:03:11.290Z,1.20
2019-03-05T13:04:11.273Z,1.00
2019-03-05T13:05:11.262Z,1.40
2019-03-05T13:06:11.234Z,1.20
2019-03-05T13:07:14.174Z,1.10
2019-03-05T13:08:11.195Z,1.40
2019-03-05T13:09:13.542Z,1.40
2019-03-05T13:10:11.156Z,1.40
2019-03-05T13:11:13.053Z,1.20
2019-03-05T13:12:11.114Z,1.40
2019-03-05T13:13:14.045Z,1.30
2019-03-05T13:14:12.314Z,1.20
2019-03-05T13:15:11.061Z,1.30
2019-03-05T13:16:11.068Z,1.10
2019-03-05T13:17:11.024Z,1.40
2019-03-05T13:18:11.006Z,1.30